Time;durP1;ratioP1;P1;durP2;ratioP2;P2;SDS_P1;SDS_P2;PMS_P1;PMS_P2;Temp;Humidity;BMP_temperature;BMP_pressure;BME280_temperature;BME280_humidity;BME280_pressure;Samples;Min_cycle;Max_cycle;Signal;HPM_P1;HPM_P2
2023/12/03 00:00:07;;;;;;;10.05;5.80;;;-0.40;99.90;;;-0.50;75.27;101061.97;4893502;28;24426;-70
2023/12/03 00:02:30;;;;;;;9.53;6.07;;;-0.40;99.90;;;-0.46;75.20;101075.53;4891348;28;24986;-71
2023/12/03 00:04:53;;;;;;;7.97;5.40;;;-0.40;99.90;;;-0.43;75.38;101075.50;4885736;28;24526;-71
2023/12/03 00:07:15;;;;;;;9.40;5.93;;;-0.40;99.90;;;-0.42;75.33;101074.59;4893394;28;24515;-70
2023/12/03 00:09:37;;;;;;;8.27;6.00;;;-0.40;99.90;;;-0.42;75.25;101075.47;4891453;28;24434;-70
2023/12/03 00:11:59;;;;;;;8.43;5.50;;;-0.30;99.90;;;-0.41;74.88;101074.59;4892367;28;24453;-71
2023/12/03 00:14:21;;;;;;;10.80;6.15;;;-0.30;99.90;;;-0.43;74.69;101071.22;4882286;28;24477;-71
2023/12/03 00:16:43;;;;;;;9.25;5.60;;;-0.30;99.90;;;-0.45;75.18;101075.53;4887943;28;24431;-69
2023/12/03 00:19:05;;;;;;;9.60;5.90;;;-0.30;99.90;;;-0.53;75.38;101071.44;4877447;28;24819;-70
2023/12/03 00:21:27;;;;;;;10.00;5.95;;;-0.40;99.90;;;-0.54;75.32;101080.84;4890433;28;24748;-69
2023/12/03 00:23:49;;;;;;;11.38;6.40;;;-0.40;99.90;;;-0.59;76.02;101077.50;4888622;28;25076;-71
2023/12/03 00:26:11;;;;;;;9.13;5.53;;;-0.50;99.90;;;-0.63;75.65;101073.31;4878580;28;24499;-70
2023/12/03 00:28:33;;;;;;;9.18;6.20;;;-0.50;99.90;;;-0.70;76.08;101071.75;4886873;28;24448;-70
2023/12/03 00:30:55;;;;;;;10.30;5.90;;;-0.50;99.90;;;-0.72;76.41;101073.50;4885818;28;24462;-70
2023/12/03 00:33:17;;;;;;;10.50;5.97;;;-0.60;99.90;;;-0.75;76.90;101078.69;4883407;28;24979;-71
2023/12/03 00:35:39;;;;;;;11.40;6.43;;;-0.60;99.90;;;-0.79;76.99;101074.50;4890496;28;24983;-70
2023/12/03 00:38:01;;;;;;;11.50;6.43;;;-0.70;99.90;;;-0.83;76.87;101078.81;4890871;28;24549;-70
2023/12/03 00:40:23;;;;;;;11.23;6.57;;;-0.70;99.90;;;-0.85;76.73;101075.44;4891098;28;25061;-70
2023/12/03 00:42:44;;;;;;;11.35;6.30;;;-0.70;99.90;;;-0.86;77.19;101072.91;4888440;28;24963;-70
2023/12/03 00:45:07;;;;;;;12.67;6.40;;;-0.70;99.90;;;-0.89;77.27;101075.50;4887302;28;24830;-71
2023/12/03 00:47:29;;;;;;;9.70;5.93;;;-0.70;99.90;;;-0.86;76.74;101085.72;4891472;28;24523;-70
2023/12/03 00:49:51;;;;;;;11.73;6.40;;;-0.70;99.90;;;-0.89;77.16;101088.31;4892077;28;25064;-71
2023/12/03 00:52:13;;;;;;;11.38;6.60;;;-0.80;99.90;;;-0.94;77.28;101085.03;4886228;28;24542;-71
2023/12/03 00:54:35;;;;;;;12.33;6.20;;;-0.80;99.90;;;-1.02;77.81;101092.81;4892877;28;24507;-71
2023/12/03 00:56:57;;;;;;;10.80;6.05;;;-0.80;99.90;;;-1.16;78.95;101092.22;4884275;28;25043;-72
2023/12/03 00:59:19;;;;;;;11.18;6.20;;;-0.90;99.90;;;-1.17;78.89;101093.09;4885533;28;24628;-70
2023/12/03 01:01:41;;;;;;;11.45;6.47;;;-0.90;99.90;;;-1.17;78.95;101100.75;4892240;28;24449;-70
2023/12/03 01:04:03;;;;;;;10.65;6.30;;;-0.90;99.90;;;-1.19;79.20;101094.00;4890538;28;24434;-71
2023/12/03 01:06:25;;;;;;;11.77;6.05;;;-0.90;99.90;;;-1.12;79.03;101105.81;4885973;28;24454;-71
2023/12/03 01:08:47;;;;;;;12.52;6.63;;;-1.00;99.90;;;-1.20;79.13;101103.38;4884500;28;24432;-72
2023/12/03 01:11:09;;;;;;;10.05;6.00;;;-1.00;99.90;;;-1.20;79.42;101112.78;4884471;28;24432;-71
2023/12/03 01:13:31;;;;;;;13.10;6.75;;;-1.00;99.90;;;-1.16;79.25;101114.41;4885497;28;25077;-71
2023/12/03 01:15:53;;;;;;;12.90;7.13;;;-1.00;99.90;;;-1.17;79.07;101115.31;4888692;28;24522;-68
2023/12/03 01:18:15;;;;;;;12.23;7.40;;;-1.00;99.90;;;-1.16;79.03;101119.53;4899292;28;24641;-72
2023/12/03 01:20:37;;;;;;;13.13;6.72;;;-1.10;99.90;;;-1.22;79.35;101120.50;4883974;28;24496;-72
2023/12/03 01:23:00;;;;;;;13.15;7.10;;;-1.10;99.90;;;-1.19;78.95;101119.59;4877770;28;24934;-71
2023/12/03 01:25:22;;;;;;;10.40;6.50;;;-1.10;99.90;;;-1.22;79.58;101120.50;4892770;28;25049;-71
2023/12/03 01:27:44;;;;;;;13.70;7.40;;;-1.10;99.90;;;-1.17;79.79;101123.81;4890345;28;24871;-70
2023/12/03 01:30:06;;;;;;;12.10;6.53;;;-1.00;99.90;;;-1.16;79.14;101125.50;4884679;28;24501;-70
2023/12/03 01:32:29;;;;;;;13.23;7.50;;;-1.00;99.90;;;-1.11;79.62;101122.88;4880211;28;24863;-70
2023/12/03 01:34:50;;;;;;;13.90;6.30;;;-1.00;99.90;;;-1.13;79.03;101130.56;4890561;28;24450;-70
2023/12/03 01:37:12;;;;;;;14.88;7.72;;;-1.00;99.90;;;-1.21;79.64;101131.56;4886133;28;24422;-70
2023/12/03 01:39:34;;;;;;;14.43;8.10;;;-1.00;99.90;;;-1.19;79.27;101133.22;4891709;28;24455;-69
2023/12/03 01:41:56;;;;;;;14.15;7.68;;;-1.10;99.90;;;-1.17;79.78;101134.03;4894962;28;24573;-69
2023/12/03 01:44:19;;;;;;;13.52;7.80;;;-1.10;99.90;;;-1.13;79.85;101140.00;4885700;28;24501;-67
2023/12/03 01:46:41;;;;;;;12.38;7.68;;;-1.00;99.90;;;-1.12;79.80;101142.50;4884708;28;24465;-72
2023/12/03 01:49:03;;;;;;;14.05;8.15;;;-1.00;99.90;;;-1.08;79.51;101140.72;4896864;28;24458;-70
2023/12/03 01:51:26;;;;;;;12.85;6.70;;;-1.00;99.90;;;-1.11;79.21;101141.63;4892183;28;24435;-74
2023/12/03 01:53:49;;;;;;;15.15;8.20;;;-1.00;99.90;;;-1.11;78.98;101149.31;4876118;28;24430;-70
2023/12/03 01:56:12;;;;;;;13.48;7.30;;;-1.00;99.90;;;-1.12;79.43;101139.09;4905586;28;24537;-70
2023/12/03 01:58:34;;;;;;;15.38;7.60;;;-1.00;99.90;;;-1.14;79.51;101140.84;4900885;28;25079;-71
2023/12/03 02:00:56;;;;;;;11.77;6.95;;;-1.00;99.90;;;-1.17;79.10;101139.16;4885052;28;24442;-70
2023/12/03 02:03:18;;;;;;;15.52;8.00;;;-1.00;99.90;;;-1.26;79.43;101148.72;4887549;28;24478;-69
2023/12/03 02:05:40;;;;;;;10.60;6.40;;;-1.10;99.90;;;-1.25;79.37;101145.28;4889262;28;24545;-70
2023/12/03 02:08:03;;;;;;;12.88;7.50;;;-1.10;99.90;;;-1.31;80.28;101145.38;4889209;28;24530;-70
2023/12/03 02:10:25;;;;;;;11.95;6.70;;;-1.10;99.90;;;-1.36;79.92;101145.44;4887060;28;24505;-70
2023/12/03 02:12:47;;;;;;;11.90;6.53;;;-1.20;99.90;;;-1.42;80.36;101148.09;4883517;28;25144;-70
2023/12/03 02:15:10;;;;;;;13.63;7.40;;;-1.20;99.90;;;-1.40;79.95;101160.88;4885753;28;25077;-70
2023/12/03 02:17:32;;;;;;;13.40;7.38;;;-1.20;99.90;;;-1.58;80.43;101152.59;4885988;28;25098;-70
2023/12/03 02:19:54;;;;;;;12.75;7.22;;;-1.30;99.90;;;-1.53;80.80;101159.38;4878277;28;24553;-71
2023/12/03 02:22:16;;;;;;;14.32;7.38;;;-1.30;99.90;;;-1.57;81.42;101164.53;4888295;28;24554;-70
2023/12/03 02:24:38;;;;;;;14.07;7.20;;;-1.40;99.90;;;-1.58;81.16;101169.69;4878002;28;24519;-71
2023/12/03 02:27:00;;;;;;;12.95;6.80;;;-1.40;99.90;;;-1.57;81.00;101174.78;4892552;28;24447;-70
2023/12/03 02:29:22;;;;;;;13.50;7.43;;;-1.40;99.90;;;-1.55;81.54;101171.34;4893382;28;24462;-71
2023/12/03 02:31:44;;;;;;;13.68;6.90;;;-1.40;99.90;;;-1.54;80.82;101167.91;4892980;28;24533;-70
2023/12/03 02:34:11;;;;;;;12.88;6.93;;;-1.40;99.90;;;-1.58;80.72;101173.06;4895825;28;24469;-72
2023/12/03 02:36:34;;;;;;;12.95;6.63;;;-1.40;99.90;;;-1.60;80.74;101166.31;4891845;28;24488;-68
2023/12/03 02:38:56;;;;;;;12.63;6.90;;;-1.40;99.90;;;-1.58;81.51;101162.00;4893597;28;24457;-68
2023/12/03 02:41:17;;;;;;;13.38;7.10;;;-1.40;99.90;;;-1.57;80.93;101161.97;4892955;28;24600;-71
2023/12/03 02:43:39;;;;;;;13.07;6.80;;;-1.40;99.90;;;-1.66;81.35;101174.03;4889600;28;24439;-68
2023/12/03 02:46:01;;;;;;;14.40;7.43;;;-1.40;99.90;;;-1.67;81.76;101173.22;4894187;28;24427;-69
2023/12/03 02:48:23;;;;;;;11.03;5.73;;;-1.50;99.90;;;-1.69;81.49;101176.66;4890830;28;24925;-69
2023/12/03 02:50:45;;;;;;;9.57;5.10;;;-1.50;99.90;;;-1.68;82.28;101171.50;4886067;28;24477;-69
2023/12/03 02:53:07;;;;;;;9.13;5.70;;;-1.50;99.90;;;-1.67;82.07;101175.78;4879735;28;24474;-72
2023/12/03 02:55:29;;;;;;;12.90;7.15;;;-1.50;99.90;;;-1.69;81.82;101169.84;4888139;28;24441;-69
2023/12/03 02:57:51;;;;;;;11.05;6.30;;;-1.50;99.90;;;-1.71;81.65;101174.13;4886554;28;24968;-68
2023/12/03 03:00:14;;;;;;;13.15;7.10;;;-1.50;99.90;;;-1.65;82.03;101171.47;4889506;28;24559;-68
2023/12/03 03:02:37;;;;;;;15.18;7.78;;;-1.50;99.90;;;-1.73;82.26;101173.31;4882315;28;24438;-70
2023/12/03 03:04:59;;;;;;;13.77;7.93;;;-1.50;99.90;;;-1.69;81.19;101174.09;4891803;28;24514;-69
2023/12/03 03:07:21;;;;;;;14.07;7.60;;;-1.50;99.90;;;-1.67;82.07;101175.78;4893871;28;24471;-71
2023/12/03 03:09:43;;;;;;;15.57;8.03;;;-1.50;99.90;;;-1.60;81.21;101174.78;4889855;28;24470;-69
2023/12/03 03:12:05;;;;;;;14.73;7.53;;;-1.50;99.90;;;-1.55;81.96;101174.75;4891246;28;24994;-71
2023/12/03 03:14:27;;;;;;;13.95;7.43;;;-1.40;99.90;;;-1.51;81.45;101166.16;4885351;28;24865;-70
2023/12/03 03:16:49;;;;;;;14.10;7.20;;;-1.40;99.90;;;-1.48;81.02;101171.22;4882811;28;24540;-73
2023/12/03 03:19:11;;;;;;;12.50;6.60;;;-1.30;99.90;;;-1.48;80.95;101170.38;4893777;28;24532;-70
2023/12/03 03:21:38;;;;;;;12.57;6.75;;;-1.30;99.90;;;-1.58;80.64;101175.63;4893478;28;24854;-71
2023/12/03 03:24:00;;;;;;;14.65;7.35;;;-1.40;99.90;;;-1.62;81.45;101170.59;4892511;28;24978;-69
2023/12/03 03:26:22;;;;;;;14.87;7.60;;;-1.40;99.90;;;-1.66;81.25;101164.66;4893812;28;24553;-70
2023/12/03 03:28:44;;;;;;;15.35;8.15;;;-1.50;99.90;;;-1.62;81.52;101168.84;4893902;28;25059;-70
2023/12/03 03:31:06;;;;;;;14.57;7.20;;;-1.50;99.90;;;-1.67;81.80;101170.66;4889205;28;24422;-70
2023/12/03 03:33:28;;;;;;;13.93;7.10;;;-1.50;99.90;;;-1.73;81.48;101170.75;4891860;28;25353;-70
2023/12/03 03:35:50;;;;;;;14.57;7.80;;;-1.50;99.90;;;-1.70;81.37;101178.34;4891501;28;24972;-70
2023/12/03 03:38:12;;;;;;;15.27;7.60;;;-1.50;99.90;;;-1.71;81.88;101170.72;4879416;28;24998;-70
2023/12/03 03:40:34;;;;;;;15.48;8.05;;;-1.50;99.90;;;-1.72;81.79;101167.28;4887653;28;24465;-70
2023/12/03 03:42:57;;;;;;;14.18;7.40;;;-1.50;99.90;;;-1.73;81.63;101175.84;4894026;28;24519;-70
2023/12/03 03:45:19;;;;;;;12.73;7.20;;;-1.60;99.90;;;-1.76;81.87;101177.59;4893785;28;24566;-70
2023/12/03 03:47:40;;;;;;;12.75;6.78;;;-1.60;99.90;;;-1.72;82.08;101181.78;4893890;28;24518;-70
2023/12/03 03:50:04;;;;;;;15.32;7.13;;;-1.60;99.90;;;-1.74;82.56;101184.38;4892878;28;25030;-70
2023/12/03 03:52:26;;;;;;;14.15;7.45;;;-1.60;99.90;;;-1.77;82.31;101186.97;4893720;28;24506;-70
2023/12/03 03:54:48;;;;;;;14.40;6.97;;;-1.60;99.90;;;-1.79;82.29;101188.69;4893644;28;24861;-71
2023/12/03 03:57:10;;;;;;;10.70;5.93;;;-1.60;99.90;;;-1.81;81.72;101187.06;4893585;28;24434;-70
2023/12/03 03:59:32;;;;;;;14.00;6.82;;;-1.60;99.90;;;-1.76;81.87;101187.81;4892544;28;24995;-70
2023/12/03 04:01:54;;;;;;;13.02;6.40;;;-1.60;99.90;;;-1.79;82.59;101200.66;4888341;28;25036;-71
2023/12/03 04:04:18;;;;;;;12.52;6.45;;;-1.60;99.90;;;-1.84;82.51;101208.41;4883504;28;24423;-71
2023/12/03 04:06:45;;;;;;;13.10;6.65;;;-1.60;99.90;;;-1.86;82.64;101214.38;4876863;28;24788;-70
2023/12/03 04:09:07;;;;;;;14.13;7.28;;;-1.60;99.90;;;-1.92;82.59;101217.88;4883073;28;24477;-70
2023/12/03 04:11:29;;;;;;;13.73;6.80;;;-1.70;99.90;;;-1.94;82.88;101222.13;4873159;28;25042;-71
2023/12/03 04:13:51;;;;;;;15.93;7.60;;;-1.80;99.90;;;-1.87;82.95;101228.03;4873949;28;24542;-70
2023/12/03 04:16:21;;;;;;;13.95;7.70;;;-1.70;99.90;;;-1.90;83.31;101233.19;4875114;28;24449;-70
2023/12/03 04:18:43;;;;;;;12.83;7.10;;;-1.70;99.90;;;-1.94;82.39;101234.09;4873465;28;24525;-70
2023/12/03 04:21:15;;;;;;;16.02;7.97;;;-1.80;99.90;;;-1.93;83.56;101243.44;4872004;28;24431;-72
2023/12/03 04:23:37;;;;;;;17.05;7.97;;;-1.80;99.90;;;-1.95;82.61;101240.91;4877622;28;24450;-70
2023/12/03 04:25:58;;;;;;;14.20;7.20;;;-1.70;99.90;;;-1.94;82.67;101245.16;4880277;28;24518;-70
2023/12/03 04:28:20;;;;;;;13.93;7.50;;;-1.80;99.90;;;-1.95;83.11;101245.19;4887497;28;25019;-70
2023/12/03 04:30:42;;;;;;;16.27;8.07;;;-1.80;99.90;;;-1.97;83.30;101246.91;4896152;28;24530;-71
2023/12/03 04:33:04;;;;;;;12.30;6.87;;;-1.80;99.90;;;-1.97;82.88;101250.31;4895764;28;24488;-71
2023/12/03 04:35:26;;;;;;;13.82;7.38;;;-1.80;99.90;;;-1.97;83.08;101245.22;4881301;28;24428;-69
2023/12/03 04:37:48;;;;;;;13.20;7.13;;;-1.80;99.90;;;-1.90;82.52;101246.84;4888063;28;24518;-71
2023/12/03 04:40:11;;;;;;;15.52;7.63;;;-1.80;99.90;;;-1.89;82.63;101248.53;4888379;28;24517;-71
2023/12/03 04:42:35;;;;;;;16.48;8.82;;;-1.80;99.90;;;-1.85;82.46;101249.31;4874478;28;24534;-70
2023/12/03 04:44:57;;;;;;;16.98;8.70;;;-1.70;99.90;;;-1.84;82.37;101251.88;4876927;28;24508;-70
2023/12/03 04:47:19;;;;;;;13.07;6.60;;;-1.70;99.90;;;-1.80;82.61;101253.53;4874449;28;24471;-70
2023/12/03 04:49:41;;;;;;;13.50;6.88;;;-1.70;99.90;;;-1.88;82.86;101252.78;4878625;28;24529;-71
2023/12/03 04:52:03;;;;;;;15.68;7.70;;;-1.70;99.90;;;-1.91;82.64;101255.38;4895464;28;24512;-69
2023/12/03 04:54:25;;;;;;;15.65;7.88;;;-1.70;99.90;;;-1.97;82.35;101259.69;4885013;28;25059;-71
2023/12/03 04:56:47;;;;;;;12.95;6.90;;;-1.80;99.90;;;-2.03;82.41;101262.31;4877720;28;24431;-70
2023/12/03 04:59:09;;;;;;;14.30;7.30;;;-1.80;99.90;;;-2.05;82.74;101262.34;4890146;28;24538;-69
2023/12/03 05:01:31;;;;;;;14.20;7.40;;;-1.90;99.90;;;-2.00;82.64;101263.13;4897427;28;24513;-69
2023/12/03 05:03:53;;;;;;;13.68;7.82;;;-1.90;99.90;;;-1.99;82.56;101263.97;4893899;28;24500;-69
2023/12/03 05:06:15;;;;;;;13.02;7.45;;;-1.80;99.90;;;-1.96;83.12;101264.78;4894620;28;24423;-69
2023/12/03 05:08:37;;;;;;;14.45;7.82;;;-1.80;99.90;;;-1.96;83.07;101262.22;4883865;28;24435;-70
2023/12/03 05:11:06;;;;;;;15.82;7.70;;;-1.80;99.90;;;-1.95;82.83;101271.59;4883793;28;24510;-71
2023/12/03 05:13:28;;;;;;;13.85;7.47;;;-1.80;99.90;;;-1.98;83.19;101270.81;4876136;28;24489;-69
2023/12/03 05:15:49;;;;;;;15.50;6.90;;;-1.80;99.90;;;-1.96;83.66;101272.47;4884573;28;24542;-68
2023/12/03 05:18:11;;;;;;;14.93;7.38;;;-1.80;99.90;;;-1.97;83.01;101277.59;4896545;28;24492;-73
2023/12/03 05:20:34;;;;;;;15.10;8.02;;;-1.80;99.90;;;-1.95;82.75;101273.31;4892169;28;24825;-69
2023/12/03 05:22:56;;;;;;;14.80;7.70;;;-1.80;99.90;;;-1.97;83.14;101275.91;4897493;28;24557;-69
2023/12/03 05:25:18;;;;;;;14.45;7.45;;;-1.80;99.90;;;-1.95;83.36;101280.97;4895864;28;24423;-69
2023/12/03 05:27:40;;;;;;;14.35;7.80;;;-1.80;99.90;;;-1.95;82.96;101284.41;4883447;28;24503;-69
2023/12/03 05:30:04;;;;;;;15.18;7.47;;;-1.80;99.90;;;-2.02;83.13;101277.63;4883635;28;24453;-70
2023/12/03 05:32:26;;;;;;;15.48;7.65;;;-1.80;99.90;;;-2.00;82.94;101283.59;4881002;28;24559;-69
2023/12/03 05:34:48;;;;;;;18.40;8.80;;;-1.80;99.90;;;-2.04;82.71;101276.81;4883246;28;24537;-68
2023/12/03 05:37:10;;;;;;;16.70;8.20;;;-1.90;99.90;;;-2.07;83.87;101284.53;4882896;28;24528;-69
2023/12/03 05:39:32;;;;;;;16.23;7.60;;;-1.90;99.90;;;-2.09;83.61;101280.28;4878417;28;24542;-69
2023/12/03 05:41:54;;;;;;;16.65;8.27;;;-1.90;99.90;;;-2.07;83.38;101281.97;4884956;28;24804;-69
2023/12/03 05:44:15;;;;;;;15.77;8.10;;;-1.90;99.90;;;-2.06;83.62;101275.13;4893245;28;24477;-69
2023/12/03 05:46:44;;;;;;;16.27;8.18;;;-1.90;99.90;;;-2.07;82.95;101287.09;4886255;28;24449;-69
2023/12/03 05:49:06;;;;;;;14.85;7.57;;;-1.90;99.90;;;-2.14;83.65;101288.00;4882947;28;24438;-69
2023/12/03 05:51:29;;;;;;;14.37;7.37;;;-1.90;99.90;;;-2.20;83.63;101290.63;4892590;28;24558;-69
2023/12/03 05:53:51;;;;;;;14.98;7.85;;;-2.00;99.90;;;-2.21;83.70;101288.91;4893372;28;24859;-69
2023/12/03 05:56:13;;;;;;;13.77;7.32;;;-2.00;99.90;;;-2.15;83.50;101288.03;4895091;28;24533;-69
2023/12/03 05:58:34;;;;;;;15.30;7.25;;;-1.90;99.90;;;-2.14;83.81;101292.25;4892236;28;24881;-67
2023/12/03 06:00:56;;;;;;;15.80;7.82;;;-2.00;99.90;;;-2.24;82.79;101283.84;4892329;28;25023;-70
2023/12/03 06:03:18;;;;;;;15.63;7.40;;;-2.00;99.90;;;-2.31;84.02;101289.03;4893066;28;24514;-69
2023/12/03 06:05:40;;;;;;;13.75;6.93;;;-2.10;99.90;;;-2.36;85.02;101287.34;4892053;28;24442;-69
2023/12/03 06:08:02;;;;;;;15.00;6.60;;;-2.10;99.90;;;-2.35;84.26;101288.22;4887168;28;24454;-69
2023/12/03 06:10:24;;;;;;;14.20;6.65;;;-2.10;99.90;;;-2.38;84.34;101291.63;4882451;28;24621;-69
2023/12/03 06:12:46;;;;;;;16.85;7.53;;;-2.10;99.90;;;-2.37;84.59;101284.81;4874827;28;24519;-69
2023/12/03 06:15:09;;;;;;;13.93;6.97;;;-2.10;99.90;;;-2.40;84.56;101282.28;4893878;28;24857;-70
2023/12/03 06:17:31;;;;;;;13.00;6.63;;;-2.20;99.90;;;-2.36;84.48;101283.94;4894598;28;24442;-69
2023/12/03 06:19:53;;;;;;;14.13;6.50;;;-2.20;99.90;;;-2.35;84.68;101288.22;4889805;28;24476;-70
2023/12/03 06:22:15;;;;;;;16.00;7.90;;;-2.20;99.90;;;-2.35;84.64;101283.09;4894799;28;24453;-68
2023/12/03 06:24:36;;;;;;;12.52;6.65;;;-2.20;99.90;;;-2.30;84.63;101281.34;4893236;28;24492;-70
2023/12/03 06:26:58;;;;;;;17.60;8.00;;;-2.10;99.90;;;-2.35;84.69;101280.53;4890334;28;24590;-69
2023/12/03 06:29:20;;;;;;;15.10;7.20;;;-2.20;99.90;;;-2.47;84.93;101288.31;4876737;28;24451;-72
2023/12/03 06:31:42;;;;;;;15.68;7.60;;;-2.20;99.90;;;-2.44;85.50;101293.41;4890118;28;24542;-69
2023/12/03 06:34:04;;;;;;;13.80;6.63;;;-2.20;99.90;;;-2.38;84.74;101301.84;4895182;28;24454;-70
2023/12/03 06:36:27;;;;;;;14.20;7.40;;;-2.20;99.90;;;-2.44;84.68;101289.13;4891443;28;24466;-67
2023/12/03 06:38:48;;;;;;;13.00;6.30;;;-2.20;99.90;;;-2.39;84.80;101291.66;4881419;28;24465;-69
2023/12/03 06:41:11;;;;;;;13.30;7.30;;;-2.20;99.90;;;-2.46;85.43;101298.53;4890848;28;24529;-70
2023/12/03 06:43:33;;;;;;;14.30;6.20;;;-2.20;99.90;;;-2.46;84.62;101297.66;4875177;28;24557;-71
2023/12/03 06:45:54;;;;;;;14.88;7.00;;;-2.20;99.90;;;-2.39;85.32;101304.44;4875698;28;24987;-69
2023/12/03 06:48:16;;;;;;;18.20;8.13;;;-2.20;99.90;;;-2.46;84.80;101301.09;4893948;28;24434;-69
2023/12/03 06:50:38;;;;;;;13.88;7.05;;;-2.20;99.90;;;-2.43;85.45;101303.59;4882129;28;24863;-70
2023/12/03 06:53:03;;;;;;;17.00;7.93;;;-2.20;99.90;;;-2.34;84.70;101310.34;4891942;28;24538;-69
2023/12/03 06:55:25;;;;;;;16.77;7.82;;;-2.20;99.90;;;-2.36;85.25;101309.50;4878187;28;24741;-69
2023/12/03 06:57:47;;;;;;;14.85;7.85;;;-2.20;99.90;;;-2.41;85.35;101309.53;4882637;28;24453;-69
2023/12/03 07:00:10;;;;;;;12.32;6.63;;;-2.20;99.90;;;-2.39;85.36;101312.09;4881904;28;24454;-69
2023/12/03 07:02:32;;;;;;;14.27;7.28;;;-2.20;99.90;;;-2.45;85.34;101307.03;4879570;28;24475;-69
2023/12/03 07:04:54;;;;;;;13.45;7.60;;;-2.20;99.90;;;-2.56;85.63;101304.56;4884046;28;24932;-69
2023/12/03 07:07:16;;;;;;;14.70;7.05;;;-2.20;99.90;;;-2.46;84.49;101313.00;4887016;28;24437;-70
2023/12/03 07:09:38;;;;;;;16.73;7.82;;;-2.20;99.90;;;-2.50;84.91;101313.88;4885477;28;24448;-70
2023/12/03 07:12:01;;;;;;;16.95;8.27;;;-2.30;99.90;;;-2.43;85.04;101316.38;4887446;28;24732;-69
2023/12/03 07:14:23;;;;;;;16.50;8.00;;;-2.20;99.90;;;-2.42;85.16;101322.34;4884105;28;24427;-68
2023/12/03 07:16:45;;;;;;;16.05;7.40;;;-2.20;99.90;;;-2.40;84.99;101325.72;4880592;28;24439;-68
2023/12/03 07:19:08;;;;;;;15.15;7.90;;;-2.20;99.90;;;-2.38;84.46;101324.00;4888524;28;24518;-68
2023/12/03 07:21:30;;;;;;;17.08;8.02;;;-2.20;99.90;;;-2.30;84.82;101324.81;4883141;28;24454;-70
2023/12/03 07:23:52;;;;;;;16.05;7.70;;;-2.10;99.90;;;-2.23;84.00;101328.13;4887544;28;24467;-71
2023/12/03 07:26:13;;;;;;;14.88;8.10;;;-2.10;99.90;;;-2.18;83.50;101342.59;4874070;28;24459;-70
2023/12/03 07:28:36;;;;;;;17.65;7.82;;;-2.00;99.90;;;-2.23;84.02;101344.31;4884036;28;24427;-70
2023/12/03 07:30:58;;;;;;;13.80;7.20;;;-2.00;99.90;;;-2.19;83.75;101346.00;4886855;28;24541;-68
2023/12/03 07:33:20;;;;;;;15.50;7.95;;;-2.00;99.90;;;-2.12;83.43;101342.53;4879605;28;24461;-70
2023/12/03 07:35:42;;;;;;;15.93;7.57;;;-1.90;99.90;;;-2.08;84.00;101346.75;4883846;28;24532;-71
2023/12/03 07:38:04;;;;;;;15.65;7.78;;;-1.90;99.90;;;-2.02;83.47;101354.34;4887699;28;24449;-71
2023/12/03 07:40:26;;;;;;;13.73;7.30;;;-1.80;99.90;;;-1.91;83.34;101349.13;4878302;28;24494;-68
2023/12/03 07:42:48;;;;;;;14.27;7.38;;;-1.80;99.90;;;-1.86;83.07;101355.06;4884301;28;25082;-70
2023/12/03 07:45:10;;;;;;;15.35;8.02;;;-1.70;99.90;;;-1.73;82.88;101352.38;4881210;28;24461;-70
2023/12/03 07:47:32;;;;;;;15.67;8.00;;;-1.60;99.90;;;-1.27;82.75;101355.25;4891655;28;24523;-70
2023/12/03 07:49:55;;;;;;;13.80;7.57;;;-1.30;99.90;;;-1.06;80.61;101356.69;4890454;28;24823;-69
2023/12/03 07:52:19;;;;;;;12.37;6.70;;;-1.10;99.90;;;-1.12;79.74;101359.34;4883467;28;24433;-71
2023/12/03 07:54:42;;;;;;;16.08;7.90;;;-1.00;99.90;;;-1.32;80.46;101358.75;4892595;28;24425;-71
2023/12/03 07:57:05;;;;;;;14.07;7.35;;;-1.10;99.90;;;-1.29;81.05;101362.09;4885390;28;24503;-71
2023/12/03 07:59:27;;;;;;;14.23;7.32;;;-1.10;99.90;;;-0.80;80.96;101362.31;4888567;28;24477;-71
2023/12/03 08:01:49;;;;;;;14.77;7.45;;;-0.90;99.90;;;-0.24;78.08;101362.31;4881366;28;24543;-69
2023/12/03 08:04:11;;;;;;;14.55;7.85;;;-0.40;99.90;;;0.53;75.81;101362.66;4905677;28;24850;-70
2023/12/03 08:06:33;;;;;;;16.02;8.40;;;0.10;99.90;;;1.35;72.20;101369.47;4892333;28;24488;-69
2023/12/03 08:08:58;;;;;;;16.73;8.02;;;0.90;99.90;;;2.22;69.08;101374.19;4887302;28;24508;-69
2023/12/03 08:11:20;;;;;;;17.05;8.75;;;1.60;99.90;;;3.13;65.06;101388.78;4888020;28;24514;-69
2023/12/03 08:13:42;;;;;;;18.23;8.55;;;2.50;99.90;;;4.21;62.57;101388.78;4884392;28;24538;-69
2023/12/03 08:16:05;;;;;;;21.02;9.50;;;3.30;99.90;;;4.88;59.42;101388.97;4892063;28;24470;-69
2023/12/03 08:18:27;;;;;;;18.77;9.52;;;4.10;99.90;;;6.22;55.54;101392.28;4890667;28;24605;-68
2023/12/03 08:20:49;;;;;;;20.25;10.13;;;5.20;99.90;;;7.81;52.23;101391.03;4889530;28;24450;-69
2023/12/03 08:23:11;;;;;;;20.02;10.30;;;6.40;99.90;;;9.31;48.02;101391.06;4886250;28;24592;-69
2023/12/03 08:25:33;;;;;;;19.70;10.80;;;7.70;99.90;;;10.32;45.06;101389.66;4892944;28;24539;-69
2023/12/03 08:27:55;;;;;;;21.77;11.90;;;8.80;99.90;;;11.24;42.91;101386.59;4891436;28;25083;-69
2023/12/03 08:30:17;;;;;;;22.20;12.10;;;9.80;98.10;;;11.93;40.86;101394.31;4892821;28;24437;-69
2023/12/03 08:32:39;;;;;;;20.80;11.90;;;10.50;95.80;;;12.21;40.20;101379.31;4890368;28;25084;-71
2023/12/03 08:35:01;;;;;;;17.40;10.50;;;11.00;93.50;;;12.54;38.65;101378.84;4879886;28;24796;-69
2023/12/03 08:37:23;;;;;;;20.55;11.48;;;11.40;91.40;;;12.98;38.04;101381.84;4871253;28;25006;-69
2023/12/03 08:39:45;;;;;;;22.48;12.40;;;11.70;90.60;;;13.82;37.03;101382.72;4883065;28;24518;-67
2023/12/03 08:42:07;;;;;;;21.90;12.70;;;12.40;88.70;;;13.87;36.11;101380.59;4883663;28;24451;-69
2023/12/03 08:44:29;;;;;;;20.85;12.45;;;12.70;84.80;;;14.85;35.00;101379.28;4882249;28;24518;-70
2023/12/03 08:46:52;;;;;;;22.35;12.90;;;13.30;82.30;;;15.44;34.06;101381.50;4872526;28;24489;-69
2023/12/03 08:49:13;;;;;;;22.05;12.93;;;13.90;79.90;;;15.25;33.74;101376.03;4886921;28;24851;-71
2023/12/03 08:51:38;;;;;;;21.70;13.40;;;14.00;76.80;;;15.14;34.14;101383.09;4881565;28;24521;-69
2023/12/03 08:54:00;;;;;;;23.65;12.98;;;13.80;75.80;;;15.32;33.71;101379.84;4890692;28;24487;-70
2023/12/03 08:56:22;;;;;;;22.50;13.07;;;13.90;74.70;;;15.37;32.65;101385.56;4880305;28;25078;-70
2023/12/03 08:58:44;;;;;;;23.23;13.10;;;14.00;73.50;;;13.83;34.33;101379.16;4892334;28;25042;-70
2023/12/03 09:01:09;;;;;;;22.80;13.20;;;13.20;73.50;;;11.56;37.55;101370.53;4888910;28;24543;-70
2023/12/03 09:03:31;;;;;;;22.95;12.65;;;11.50;75.50;;;9.21;42.63;101384.69;4892165;28;24526;-70
2023/12/03 09:05:54;;;;;;;22.48;12.77;;;9.60;78.80;;;7.64;45.80;101372.84;4887637;28;24538;-69
2023/12/03 09:08:16;;;;;;;23.55;12.10;;;8.00;83.60;;;6.33;49.58;101375.44;4884497;28;24497;-69
2023/12/03 09:10:38;;;;;;;21.65;11.65;;;6.70;87.90;;;4.62;54.11;101380.44;4880060;28;24574;-69
2023/12/03 09:13:02;;;;;;;21.98;11.40;;;5.40;91.60;;;3.82;56.44;101379.75;4881368;28;24553;-69
2023/12/03 09:15:24;;;;;;;22.83;11.77;;;4.30;94.20;;;3.40;58.66;101369.06;4884203;28;24733;-69
2023/12/03 09:17:46;;;;;;;20.48;10.60;;;3.60;97.20;;;3.03;60.06;101383.94;4883031;28;24802;-71
2023/12/03 09:20:08;;;;;;;21.27;10.63;;;3.20;99.80;;;2.68;61.74;101381.53;4885613;28;24497;-70
2023/12/03 09:22:30;;;;;;;18.60;9.70;;;2.80;99.90;;;2.40;62.50;101378.84;4895387;28;24891;-70
2023/12/03 09:24:52;;;;;;;21.00;10.20;;;2.50;99.90;;;2.24;63.88;101380.97;4894834;28;24968;-71
2023/12/03 09:27:15;;;;;;;20.25;9.63;;;2.30;99.90;;;2.14;64.49;101378.69;4893985;28;24427;-72
2023/12/03 09:29:37;;;;;;;18.80;9.20;;;2.10;99.90;;;2.08;64.57;101384.84;4893238;28;24878;-70
2023/12/03 09:31:59;;;;;;;20.02;9.90;;;2.10;99.90;;;2.05;65.50;101384.91;4895512;28;24510;-70
2023/12/03 09:34:21;;;;;;;16.65;8.90;;;2.00;99.90;;;2.01;65.64;101385.03;4896425;28;24450;-68
2023/12/03 09:36:43;;;;;;;18.63;9.77;;;2.00;99.90;;;1.90;66.02;101380.13;4894139;28;24492;-69
2023/12/03 09:39:05;;;;;;;17.10;9.40;;;2.00;99.90;;;1.96;66.38;101392.84;4892034;28;24537;-66
2023/12/03 09:41:30;;;;;;;21.25;9.95;;;1.90;99.90;;;1.95;66.44;101388.59;4888417;28;25029;-70
2023/12/03 09:44:02;;;;;;;16.38;8.95;;;1.90;99.90;;;1.91;66.33;101383.56;4890264;28;24975;-68
2023/12/03 09:46:24;;;;;;;15.80;8.70;;;1.90;99.90;;;1.85;66.91;101383.72;4890247;28;24461;-67